createdAt,value
2022-11-22T05:48:04.160Z,0.373
2022-11-22T05:55:02.606Z,0.747
2022-11-22T05:58:26.743Z,1.494
2022-11-22T06:01:30.516Z,2.614
2022-11-22T06:04:24.053Z,3.735
2022-11-22T06:06:57.312Z,5.602
2022-11-22T06:09:30.560Z,8.59
2022-11-22T06:12:03.569Z,13.072
2022-11-22T06:14:41.724Z,18.675
2022-11-22T06:17:14.973Z,26.892
2022-11-22T06:19:48.097Z,37.35
2022-11-22T06:22:26.416Z,52.29
2022-11-22T06:25:09.728Z,75.82
2022-11-22T06:27:42.912Z,106.074
2022-11-22T06:30:16.147Z,137.448
2022-11-22T06:32:49.338Z,163.593
2022-11-22T06:35:27.602Z,188.991
2022-11-22T06:38:01.106Z,225.594
2022-11-22T06:40:33.880Z,271.908
2022-11-22T06:43:07.025Z,333.162
2022-11-22T06:45:40.165Z,400.392
2022-11-22T06:48:28.643Z,487.044
2022-11-22T06:51:01.732Z,582.66
2022-11-22T06:53:47.671Z,687.24
2022-11-22T06:56:23.284Z,782.856
2022-11-22T06:58:56.397Z,872.496
2022-11-22T07:01:39.746Z,986.04
2022-11-22T07:04:28.202Z,1111.536
2022-11-22T07:07:06.484Z,1237.032
2022-11-22T07:09:39.586Z,1362.528
2022-11-22T07:12:12.781Z,1505.952
2022-11-22T07:14:51.013Z,1649.376
2022-11-22T07:17:24.168Z,1792.8
2022-11-22T07:20:02.406Z,1960.128
2022-11-22T07:22:35.539Z,2091.6
2022-11-22T07:25:44.362Z,2175.264
2022-11-22T07:28:17.519Z,2223.072
2022-11-22T07:31:00.879Z,2294.784
2022-11-22T07:33:33.967Z,2402.352
2022-11-22T07:36:12.173Z,2521.872
2022-11-22T07:38:55.580Z,2677.248
2022-11-22T07:41:43.898Z,2844.576
2022-11-22T07:44:17.039Z,3023.856
2022-11-22T07:47:00.381Z,3227.04
2022-11-22T07:49:48.781Z,3466.08
2022-11-22T07:52:32.122Z,3657.312
2022-11-22T07:55:15.433Z,3800.736
2022-11-22T07:57:53.652Z,3968.064
2022-11-22T08:00:26.825Z,4302.72
2022-11-22T08:03:04.918Z,4685.184
2022-11-22T08:05:37.966Z,4995.936
2022-11-22T08:08:31.579Z,5330.592
2022-11-22T08:11:04.622Z,5545.728
2022-11-22T08:14:03.320Z,5689.152
2022-11-22T08:17:27.439Z,5760.864
2022-11-22T08:20:10.739Z,5880.384
2022-11-22T08:23:39.985Z,5952.096
2022-11-22T08:26:43.621Z,6095.52
2022-11-22T08:29:37.051Z,6406.272
2022-11-22T08:32:35.659Z,6693.12
2022-11-22T08:35:08.730Z,6119.424
2022-11-22T08:38:53.207Z,6167.232
2022-11-22T08:41:26.281Z,5904.288
2022-11-22T08:44:04.441Z,6215.04
2022-11-22T08:46:37.526Z,6454.08
2022-11-22T08:49:31.378Z,6597.504
2022-11-22T08:52:34.797Z,6693.12
2022-11-22T08:55:53.829Z,6501.888
2022-11-22T08:59:02.683Z,6693.12
2022-11-22T09:01:40.986Z,6884.352
2022-11-22T09:05:15.235Z,6836.544
2022-11-22T09:08:23.225Z,6597.504
2022-11-22T09:11:17.511Z,6358.464
2022-11-22T09:14:00.853Z,6071.616
2022-11-22T09:16:39.038Z,5736.96
2022-11-22T09:19:17.248Z,5713.056
2022-11-22T09:21:50.378Z,5808.672
2022-11-22T09:24:28.669Z,5808.672
2022-11-22T09:29:50.294Z,6262.848
2022-11-22T09:32:33.775Z,6645.312
2022-11-22T09:35:26.847Z,6740.928
2022-11-22T09:38:00.105Z,6406.272
2022-11-22T09:40:33.148Z,6645.312
2022-11-22T09:44:07.462Z,6740.928
2022-11-22T09:47:16.273Z,6262.848
2022-11-22T09:50:35.276Z,6095.52
2022-11-22T09:53:13.485Z,6023.808
2022-11-22T09:55:56.811Z,6071.616
2022-11-22T09:59:31.401Z,6262.848
2022-11-22T10:02:17.245Z,6167.232
2022-11-22T10:04:37.278Z,5569.632
2022-11-22T10:07:20.615Z,5545.728
2022-11-22T10:09:58.737Z,5808.672
2022-11-22T10:12:31.789Z,5665.248
2022-11-22T10:15:15.141Z,5163.264
2022-11-22T10:18:34.134Z,4231.008
2022-11-22T10:21:12.352Z,3824.64
2022-11-22T10:23:45.456Z,3776.832
2022-11-22T10:26:18.535Z,3920.256
2022-11-22T10:29:01.783Z,4135.392
2022-11-22T10:32:20.791Z,4446.144
2022-11-22T10:34:59.098Z,4565.664
2022-11-22T10:37:57.682Z,4948.128
2022-11-22T10:40:41.051Z,5904.288
2022-11-22T10:43:34.621Z,5856.48
2022-11-22T10:46:07.760Z,6215.04
2022-11-22T10:48:40.962Z,6693.12
2022-11-22T10:51:44.512Z,6836.544
2022-11-22T10:54:22.757Z,5880.384
2022-11-22T10:56:55.822Z,5354.496
2022-11-22T10:59:29.247Z,5211.072
2022-11-22T11:02:12.229Z,6454.08
2022-11-22T11:04:50.418Z,10565.568
2022-11-22T11:08:42.797Z,15011.712
2022-11-22T11:11:13.779Z,12525.696
2022-11-22T11:14:37.914Z,9226.944
2022-11-22T11:17:36.396Z,9944.064
2022-11-22T11:20:14.655Z,8509.824
2022-11-22T11:23:15.023Z,6597.504
2022-11-22T11:26:42.296Z,5545.728
2022-11-22T11:29:25.529Z,5665.248
2022-11-22T11:32:00.229Z,5474.016
2022-11-22T11:34:38.264Z,5426.208
2022-11-22T11:39:03.541Z,5593.536
2022-11-22T11:46:06.051Z,5736.96
2022-11-22T11:49:09.698Z,5665.248
2022-11-22T11:52:54.224Z,5019.84
2022-11-22T11:55:32.386Z,4589.568
2022-11-22T11:59:47.408Z,4446.144
2022-11-22T12:02:56.123Z,4637.376
2022-11-22T12:08:47.085Z,4924.224
2022-11-22T12:13:27.776Z,5497.92
2022-11-22T12:18:42.256Z,6740.928
2022-11-22T12:23:33.120Z,6979.968
2022-11-22T12:26:11.309Z,7027.776
2022-11-22T12:29:20.137Z,8748.864
2022-11-22T12:32:39.024Z,9465.984
2022-11-22T12:36:33.690Z,8701.056
2022-11-22T12:39:11.910Z,8366.4
2022-11-22T12:42:35.867Z,7649.28
2022-11-22T12:45:34.541Z,6979.968
2022-11-22T12:48:22.919Z,6215.04
2022-11-22T12:51:01.030Z,5474.016
2022-11-22T12:53:39.148Z,4732.992
2022-11-22T12:56:58.154Z,4589.568
2022-11-22T13:01:03.122Z,5521.824
2022-11-22T13:03:36.155Z,5856.48
2022-11-22T13:06:39.820Z,6047.712
2022-11-22T13:09:58.822Z,6215.04
2022-11-22T13:13:53.532Z,6406.272
2022-11-22T13:16:47.024Z,6549.696
2022-11-22T13:19:35.343Z,6167.232
2022-11-22T13:22:13.617Z,5808.672
2022-11-22T13:25:22.357Z,5856.48
2022-11-22T13:28:10.749Z,5234.976
2022-11-22T13:30:43.802Z,4732.992
2022-11-22T13:33:22.008Z,4254.912
2022-11-22T13:35:55.070Z,3968.064
2022-11-22T13:40:30.676Z,3872.448
2022-11-22T13:43:13.136Z,4015.872
2022-11-22T13:45:47.085Z,4135.392
2022-11-22T13:48:20.210Z,4111.488
2022-11-22T13:51:13.788Z,3944.16
2022-11-22T13:53:46.808Z,3800.736
2022-11-22T13:56:45.398Z,3681.216
2022-11-22T13:59:29.085Z,3466.08
2022-11-22T14:02:17.134Z,3083.616
2022-11-22T14:04:55.250Z,2964.096
2022-11-22T14:07:28.488Z,2784.816
2022-11-22T14:10:42.289Z,2593.584
2022-11-22T14:13:25.572Z,2557.728
2022-11-22T14:16:14.033Z,2462.112
2022-11-22T14:19:12.617Z,2366.496
2022-11-22T14:22:00.979Z,2151.36
2022-11-22T14:24:34.134Z,1900.368
2022-11-22T14:29:09.571Z,1661.328
2022-11-22T14:32:13.272Z,1470.096
2022-11-22T14:34:46.291Z,1296.792
2022-11-22T14:37:19.376Z,1159.344
2022-11-22T14:40:07.793Z,1093.608
2022-11-22T14:42:40.853Z,1063.728
2022-11-22T14:45:49.734Z,1075.68
2022-11-22T14:50:20.078Z,997.992
2022-11-22T14:52:53.147Z,788.832
2022-11-22T14:57:52.348Z,531.864
2022-11-22T15:02:58.524Z,394.416
2022-11-22T15:09:07.726Z,331.668
2022-11-22T15:09:52.798Z,236.052
2022-11-22T15:12:24.762Z,191.232
2022-11-22T16:02:38.778Z,0
